Time;durP1;ratioP1;P1;durP2;ratioP2;P2;SDS_P1;SDS_P2;PMS_P1;PMS_P2;Temp;Humidity;BMP_temperature;BMP_pressure;BME280_temperature;BME280_humidity;BME280_pressure;Samples;Min_cycle;Max_cycle;Signal;HPM_P1;HPM_P2
2022/04/09 00:01:47;;;;;;;18.77;9.45;;;;;;;7.09;71.54;98024.84;4982371;28;20520;-81
2022/04/09 00:04:13;;;;;;;14.73;7.88;;;;;;;7.12;71.94;98024.78;5017862;28;20046;-86
2022/04/09 00:06:39;;;;;;;12.43;7.50;;;;;;;7.09;72.24;98030.84;4997414;28;20060;-84
2022/04/09 00:09:05;;;;;;;13.77;8.13;;;;;;;7.22;72.31;98036.59;5014749;28;20041;-81
2022/04/09 00:11:31;;;;;;;11.50;7.35;;;;;;;6.82;72.23;97970.28;5000452;28;20050;-82
2022/04/09 00:13:58;;;;;;;18.00;7.95;;;;;;;7.13;72.36;98004.91;5020672;28;20057;-83
2022/04/09 00:16:24;;;;;;;13.02;7.82;;;;;;;7.06;72.58;97976.59;5019997;28;21200;-86
2022/04/09 00:18:50;;;;;;;13.23;7.82;;;;;;;7.18;72.48;97988.41;4983610;28;20065;-82
2022/04/09 00:21:16;;;;;;;12.40;8.18;;;;;;;7.48;72.75;98037.72;5016541;28;20041;-84
2022/04/09 00:23:42;;;;;;;16.63;8.75;;;;;;;7.17;73.09;98001.38;5015052;28;20041;-82
2022/04/09 00:26:08;;;;;;;10.88;7.45;;;;;;;7.55;72.83;98043.59;4984526;28;20029;-82
2022/04/09 00:28:34;;;;;;;13.00;8.32;;;;;;;7.41;73.13;98020.63;5002241;28;20044;-82
2022/04/09 00:31:00;;;;;;;10.13;5.40;;;;;;;7.36;72.80;98023.34;5000046;28;20038;-83
2022/04/09 00:33:26;;;;;;;7.15;5.03;;;;;;;7.42;73.42;98055.97;4994379;28;20121;-84
2022/04/09 00:35:53;;;;;;;6.55;4.43;;;;;;;6.94;73.01;97992.41;4978904;28;20494;-84
2022/04/09 00:38:19;;;;;;;9.15;5.47;;;;;;;7.12;73.75;98029.94;4979592;28;20089;-86
2022/04/09 00:40:46;;;;;;;7.93;5.30;;;;;;;7.11;73.72;98038.59;4993421;28;20045;-86
2022/04/09 00:43:12;;;;;;;9.70;5.97;;;;;;;6.97;74.44;98010.47;5010554;28;20040;-85
2022/04/09 00:45:38;;;;;;;8.20;5.30;;;;;;;7.18;74.09;98049.66;4975216;28;21049;-83
2022/04/09 00:48:08;;;;;;;6.20;4.22;;;;;;;7.13;74.14;98062.69;5009571;28;20092;-81
2022/04/09 00:50:35;;;;;;;8.40;4.57;;;;;;;6.72;74.23;97999.81;4981563;28;20453;-81
2022/04/09 00:53:01;;;;;;;7.05;4.20;;;;;;;7.11;74.79;98074.81;4995028;28;20046;-83
2022/04/09 00:58:14;;;;;;;3.20;2.50;;;;;;;7.03;74.71;98094.81;5007906;28;20072;-80
2022/04/09 01:00:41;;;;;;;3.60;2.38;;;;;;;6.72;74.85;98051.53;5013839;28;20038;-84
2022/04/09 01:03:11;;;;;;;2.60;1.90;;;;;;;6.92;74.86;98111.41;5014651;28;20137;-81
2022/04/09 01:05:38;;;;;;;2.42;1.65;;;;;;;6.41;75.06;98031.47;5004477;28;20050;-82
2022/04/09 01:08:05;;;;;;;2.88;2.03;;;;;;;6.44;75.30;98046.91;5020484;28;20470;-83
2022/04/09 01:10:31;;;;;;;3.30;1.90;;;;;;;6.76;75.43;98087.63;4980886;28;20486;-84
2022/04/09 01:12:59;;;;;;;3.28;2.08;;;;;;;6.82;75.09;98109.91;4992428;28;20201;-83
2022/04/09 01:15:25;;;;;;;2.75;2.00;;;;;;;6.84;75.41;98115.06;4974943;28;20049;-83
2022/04/09 01:17:51;;;;;;;1.90;1.70;;;;;;;6.35;75.29;98021.25;4990836;28;20528;-83
2022/04/09 01:20:19;;;;;;;1.75;1.50;;;;;;;6.93;75.05;98120.00;4991267;28;20049;-81
2022/04/09 01:22:47;;;;;;;2.33;1.70;;;;;;;6.77;75.64;98096.22;4990015;28;20041;-83
2022/04/09 01:25:14;;;;;;;3.60;1.90;;;;;;;6.96;75.48;98130.31;4982965;28;20046;-83
2022/04/09 01:27:42;;;;;;;2.95;1.52;;;;;;;6.98;75.28;98136.28;4989699;28;20568;-83
2022/04/09 01:30:09;;;;;;;2.03;1.60;;;;;;;6.95;75.68;98143.28;4989966;28;20045;-83
2022/04/09 01:32:35;;;;;;;1.88;1.52;;;;;;;6.45;75.29;98080.47;4999237;28;20037;-84
2022/04/09 01:35:03;;;;;;;3.97;1.92;;;;;;;6.87;75.29;98156.34;4990028;28;20045;-83
2022/04/09 01:37:31;;;;;;;4.32;2.80;;;;;;;6.74;75.12;98154.00;4982353;28;20481;-83
2022/04/09 01:39:58;;;;;;;2.00;1.80;;;;;;;6.67;75.13;98147.25;5006897;28;20083;-81
2022/04/09 01:42:26;;;;;;;3.45;1.92;;;;;;;6.80;75.75;98170.28;5008842;28;20091;-82
2022/04/09 01:44:56;;;;;;;1.70;1.50;;;;;;;6.69;75.41;98163.56;4991369;28;20072;-83
2022/04/09 01:47:22;;;;;;;2.40;1.73;;;;;;;6.44;75.69;98129.59;4973666;28;20044;-83
2022/04/09 01:49:48;;;;;;;2.70;1.70;;;;;;;6.63;75.12;98179.19;5009016;28;20042;-83
2022/04/09 01:52:14;;;;;;;2.35;1.60;;;;;;;6.57;75.31;98185.34;5011271;28;20038;-82
2022/04/09 01:54:40;;;;;;;1.75;1.55;;;;;;;6.31;74.91;98165.16;4977344;28;20096;-83
2022/04/09 01:57:07;;;;;;;2.30;1.80;;;;;;;6.28;75.57;98178.97;5003201;28;20037;-83
2022/04/09 01:59:33;;;;;;;3.03;1.58;;;;;;;6.20;75.44;98183.41;4978584;28;20045;-82
2022/04/09 02:02:00;;;;;;;3.70;1.50;;;;;;;6.37;75.37;98215.84;5010587;28;20033;-81
2022/04/09 02:04:28;;;;;;;1.88;1.60;;;;;;;6.44;75.52;98243.28;4987898;28;20509;-80
2022/04/09 02:06:54;;;;;;;3.50;1.70;;;;;;;6.42;74.82;98237.31;4978660;28;20042;-80
2022/04/09 02:09:22;;;;;;;2.20;2.00;;;;;;;5.97;75.29;98179.44;4978222;28;20045;-83
2022/04/09 02:11:48;;;;;;;1.95;1.48;;;;;;;6.40;75.73;98244.22;4992834;28;20049;-81
2022/04/09 02:14:15;;;;;;;2.85;1.88;;;;;;;6.38;75.52;98241.69;5022839;28;20041;-82
2022/04/09 02:16:41;;;;;;;2.85;1.83;;;;;;;6.38;75.30;98246.84;4995074;28;20038;-81
2022/04/09 02:19:11;;;;;;;3.05;1.88;;;;;;;6.42;75.63;98255.38;5002815;28;20049;-82
2022/04/09 02:21:37;;;;;;;2.55;1.70;;;;;;;6.35;74.97;98251.19;4969813;28;20136;-84
2022/04/09 02:24:04;;;;;;;2.15;1.95;;;;;;;6.17;75.08;98225.66;5006936;28;20095;-84
2022/04/09 02:26:30;;;;;;;2.33;1.70;;;;;;;6.45;75.29;98255.34;4989196;28;21305;-82
2022/04/09 02:28:57;;;;;;;2.33;1.83;;;;;;;6.07;74.76;98206.00;4989482;28;20046;-83
2022/04/09 02:31:23;;;;;;;3.58;1.90;;;;;;;6.46;74.73;98265.63;4990469;28;20038;-83
2022/04/09 02:33:50;;;;;;;4.63;2.05;;;;;;;6.03;74.73;98196.59;4990701;28;20046;-83
2022/04/09 02:36:16;;;;;;;3.70;2.00;;;;;;;6.35;74.42;98248.59;5013661;28;20532;-81
2022/04/09 02:38:44;;;;;;;3.28;2.05;;;;;;;6.11;74.70;98223.16;4980108;28;20045;-80
2022/04/09 02:41:11;;;;;;;2.10;1.83;;;;;;;6.46;74.51;98285.47;4988517;28;20099;-83
2022/04/09 02:43:40;;;;;;;5.10;2.42;;;;;;;6.40;74.30;98273.47;4991000;28;20500;-82
2022/04/09 02:46:06;;;;;;;2.35;1.80;;;;;;;6.33;74.74;98256.41;4990665;28;20143;-83
2022/04/09 02:48:42;;;;;;;4.15;1.90;;;;;;;6.34;74.57;98252.94;4996881;28;20104;-81
2022/04/09 02:51:09;;;;;;;2.83;2.00;;;;;;;6.13;73.99;98223.13;4993157;28;20034;-81
2022/04/09 02:53:35;;;;;;;2.42;1.80;;;;;;;6.46;74.86;98290.63;4975580;28;20149;-81
2022/04/09 02:56:01;;;;;;;2.53;2.00;;;;;;;6.48;74.47;98286.31;4971982;28;20045;-82
2022/04/09 02:58:30;;;;;;;3.00;1.85;;;;;;;6.47;74.23;98289.75;4982202;28;20056;-80
2022/04/09 03:00:56;;;;;;;2.80;2.15;;;;;;;6.34;74.29;98252.94;4992460;28;20046;-82
2022/04/09 03:03:26;;;;;;;3.65;2.00;;;;;;;6.54;74.36;98287.94;5010876;28;20051;-81
2022/04/09 03:05:52;;;;;;;2.40;2.15;;;;;;;6.55;73.59;98290.47;4992333;28;20049;-83
2022/04/09 03:08:18;;;;;;;2.75;2.20;;;;;;;6.55;73.97;98294.81;4992034;28;20053;-82
2022/04/09 03:10:44;;;;;;;2.97;2.15;;;;;;;6.17;73.68;98245.44;4992627;28;20040;-82
2022/04/09 03:13:10;;;;;;;3.38;2.13;;;;;;;6.22;73.72;98254.00;4974439;28;20152;-82
2022/04/09 03:15:37;;;;;;;4.10;2.15;;;;;;;6.11;73.24;98237.78;5009289;28;20113;-82
2022/04/09 03:18:03;;;;;;;3.58;2.20;;;;;;;6.15;74.17;98253.25;4991379;28;20049;-82
2022/04/09 03:20:32;;;;;;;2.80;2.35;;;;;;;6.21;73.00;98254.00;5003172;28;20037;-82
2022/04/09 03:22:59;;;;;;;2.35;2.15;;;;;;;6.37;72.95;98283.03;4997524;28;20046;-81
2022/04/09 03:25:37;;;;;;;3.83;2.28;;;;;;;6.27;73.21;98272.84;5033822;28;20065;-84
2022/04/09 03:28:04;;;;;;;2.67;2.05;;;;;;;6.34;73.05;98283.94;4997111;28;20022;-80
2022/04/09 03:30:32;;;;;;;2.20;1.90;;;;;;;6.25;72.85;98281.50;4989260;28;20049;-83
2022/04/09 03:32:59;;;;;;;2.38;2.15;;;;;;;6.12;72.79;98266.19;4993441;28;20214;-82
2022/04/09 03:35:30;;;;;;;2.95;2.22;;;;;;;6.51;72.88;98322.41;5009513;28;20405;-82
2022/04/09 03:37:57;;;;;;;4.03;2.10;;;;;;;6.35;72.84;98297.69;4977311;28;20046;-82
2022/04/09 03:40:32;;;;;;;3.28;2.15;;;;;;;6.31;72.31;98289.16;4981344;28;20114;-80
2022/04/09 03:42:59;;;;;;;2.80;2.00;;;;;;;6.58;71.96;98334.38;4997945;28;20529;-82
2022/04/09 03:45:25;;;;;;;2.72;2.25;;;;;;;6.60;72.16;98339.53;5012687;28;20046;-80
2022/04/09 03:47:52;;;;;;;3.00;2.20;;;;;;;6.57;72.16;98340.41;4995605;28;20050;-83
2022/04/09 03:50:18;;;;;;;3.97;2.22;;;;;;;6.52;71.92;98328.44;4992671;28;20045;-81
2022/04/09 03:52:50;;;;;;;4.80;2.45;;;;;;;6.63;72.19;98342.03;4975540;28;20511;-81
2022/04/09 03:55:17;;;;;;;2.80;2.42;;;;;;;6.47;71.50;98319.03;4990826;28;20056;-79
2022/04/09 03:57:43;;;;;;;2.55;2.35;;;;;;;6.70;72.07;98364.34;4974700;28;20064;-80
2022/04/09 04:00:10;;;;;;;3.53;2.50;;;;;;;6.66;72.09;98346.31;4993164;28;20049;-81
2022/04/09 04:02:45;;;;;;;3.30;2.35;;;;;;;6.50;71.08;98325.91;4995461;28;20041;-82
2022/04/09 04:05:15;;;;;;;2.20;2.00;;;;;;;6.80;71.46;98388.31;4992276;28;20075;-81
2022/04/09 04:07:46;;;;;;;4.30;2.50;;;;;;;6.76;70.95;98379.75;4989826;28;20533;-82
2022/04/09 04:10:15;;;;;;;4.72;2.90;;;;;;;6.82;70.82;98396.91;4978730;28;20052;-81
2022/04/09 04:12:45;;;;;;;3.55;2.35;;;;;;;6.52;71.22;98346.53;4981196;28;20069;-82
2022/04/09 04:15:14;;;;;;;3.58;2.58;;;;;;;6.67;70.79;98364.38;4997286;28;20208;-80
2022/04/09 04:17:44;;;;;;;3.25;2.40;;;;;;;7.07;70.74;98412.00;4978311;28;20191;-83
2022/04/09 04:20:14;;;;;;;4.60;2.88;;;;;;;7.12;70.60;98423.16;4994593;28;20045;-81
2022/04/09 04:22:43;;;;;;;3.25;2.50;;;;;;;6.83;70.42;98380.50;5011979;28;20085;-83
2022/04/09 04:25:10;;;;;;;4.05;2.53;;;;;;;6.96;70.61;98398.38;5008579;28;20042;-85
2022/04/09 04:27:42;;;;;;;4.03;2.67;;;;;;;7.25;70.23;98444.50;4978107;28;20469;-85
2022/04/09 04:30:10;;;;;;;3.95;2.55;;;;;;;7.31;70.16;98430.59;4978567;28;20512;-83
2022/04/09 04:32:36;;;;;;;3.70;2.78;;;;;;;6.80;69.77;98374.53;5010998;28;20033;-86
2022/04/09 04:35:07;;;;;;;3.08;2.70;;;;;;;6.59;69.69;98350.75;4996949;28;20037;-87
2022/04/09 04:37:38;;;;;;;4.47;2.95;;;;;;;7.31;70.03;98456.47;4994005;28;20041;-85
2022/04/09 04:40:09;;;;;;;4.65;3.03;;;;;;;7.29;69.74;98453.88;4977183;28;20052;-81
2022/04/09 04:42:41;;;;;;;4.28;3.13;;;;;;;7.15;68.92;98435.16;4992690;28;20135;-84
2022/04/09 04:45:10;;;;;;;3.63;2.60;;;;;;;7.18;68.97;98458.41;5007656;28;20358;-83
2022/04/09 04:47:46;;;;;;;4.93;2.67;;;;;;;6.95;68.84;98425.16;4972954;28;20057;-81
2022/04/09 04:50:18;;;;;;;3.75;3.00;;;;;;;7.19;68.96;98473.88;4987846;28;20056;-82
2022/04/09 04:52:48;;;;;;;4.63;3.17;;;;;;;7.27;68.93;98472.91;4998169;28;20026;-82
2022/04/09 04:55:20;;;;;;;5.47;3.30;;;;;;;6.89;68.87;98414.03;4994959;28;20513;-82
2022/04/09 04:57:55;;;;;;;5.93;3.05;;;;;;;7.36;68.80;98483.13;4997029;28;20042;-83
2022/04/09 05:00:31;;;;;;;4.13;3.13;;;;;;;7.28;68.53;98469.44;4992415;28;20057;-82
2022/04/09 05:03:02;;;;;;;4.88;2.88;;;;;;;7.41;68.57;98483.88;4991451;28;20048;-78
2022/04/09 05:05:30;;;;;;;3.50;2.83;;;;;;;7.26;68.91;98456.56;4996961;28;20053;-82
2022/04/09 05:08:03;;;;;;;4.75;3.13;;;;;;;7.12;68.27;98423.16;4991844;28;20041;-80
2022/04/09 05:10:29;;;;;;;4.95;3.70;;;;;;;6.95;68.07;98396.72;5009464;28;20045;-81
2022/04/09 05:12:59;;;;;;;4.47;3.50;;;;;;;7.53;68.37;98486.28;4990906;28;20061;-83
2022/04/09 05:15:27;;;;;;;5.00;3.38;;;;;;;7.72;67.83;98511.00;5011221;28;20058;-81
2022/04/09 05:18:45;;;;;;;4.38;3.40;;;;;;;7.91;68.19;98511.50;4998926;28;20050;-83
2022/04/09 05:21:53;;;;;;;6.47;3.30;;;;;;;8.09;67.88;98521.50;4923685;28;20533;-85
2022/04/09 05:24:24;;;;;;;4.63;3.10;;;;;;;8.18;67.10;98527.41;5007518;28;20128;-83
2022/04/09 05:27:36;;;;;;;4.68;3.22;;;;;;;8.18;66.86;98512.69;5012258;28;20112;-84
2022/04/09 05:30:46;;;;;;;4.07;3.05;;;;;;;7.81;67.00;98467.66;4987716;28;20129;-82
2022/04/09 05:33:13;;;;;;;4.90;3.13;;;;;;;8.00;67.15;98511.34;4987995;28;20537;-82
2022/04/09 05:35:51;;;;;;;4.03;3.22;;;;;;;7.77;66.24;98475.50;4991673;28;20505;-85
2022/04/09 05:38:22;;;;;;;4.90;4.40;;;;;;;8.10;66.43;98538.75;4991040;28;20062;-83
2022/04/09 05:40:59;;;;;;;5.32;3.92;;;;;;;8.21;66.42;98546.31;4991697;28;20111;-80
2022/04/09 05:43:25;;;;;;;5.78;3.55;;;;;;;8.16;66.56;98539.53;4999753;28;20018;-85
2022/04/09 05:49:58;;;;;;;4.72;3.03;;;;;;;8.16;65.98;98521.41;4985493;28;20041;-83
2022/04/09 05:52:40;;;;;;;5.22;3.10;;;;;;;7.88;65.86;98486.50;4992284;28;20053;-81
2022/04/09 05:55:23;;;;;;;6.38;3.30;;;;;;;8.01;65.01;98538.09;4991393;28;20150;-86
2022/04/09 05:57:55;;;;;;;8.43;3.40;;;;;;;7.67;65.36;98496.38;4994484;28;20049;-83
2022/04/09 06:00:42;;;;;;;4.65;3.10;;;;;;;7.99;65.40;98559.69;4984757;28;20204;-85
2022/04/09 06:03:32;;;;;;;4.50;3.50;;;;;;;8.11;65.33;98589.69;4982141;28;20099;-82
2022/04/09 06:05:58;;;;;;;8.00;3.55;;;;;;;7.99;65.07;98575.22;4976933;28;21057;-80
2022/04/09 06:08:41;;;;;;;4.80;3.38;;;;;;;8.06;65.45;98614.00;4981461;28;20045;-81
2022/04/09 06:11:22;;;;;;;5.35;3.60;;;;;;;8.20;65.16;98637.06;4990058;28;20048;-80
2022/04/09 06:13:52;;;;;;;6.93;3.38;;;;;;;8.15;65.14;98634.56;5008828;28;20065;-80
2022/04/09 06:16:18;;;;;;;6.50;3.35;;;;;;;8.06;65.17;98653.69;4993489;28;20054;-80
2022/04/09 06:18:58;;;;;;;6.32;3.80;;;;;;;8.06;64.93;98661.47;4979888;28;20058;-79
2022/04/09 06:21:50;;;;;;;4.80;3.35;;;;;;;7.89;65.18;98632.41;4995546;28;20049;-78
2022/04/09 06:25:25;;;;;;;4.70;3.10;;;;;;;7.94;64.75;98661.69;4993112;28;20461;-81
2022/04/09 06:28:14;;;;;;;;;;;;;;;;;;;;;
2022/04/09 06:34:51;;;;;;;4.53;3.55;;;;;;;7.90;65.07;98671.25;4966800;28;20056;-80
2022/04/09 06:37:25;;;;;;;4.78;3.60;;;;;;;7.81;64.84;98637.72;4917335;29;20094;-79
2022/04/09 06:39:57;;;;;;;4.82;3.70;;;;;;;7.64;64.93;98612.09;4923596;29;20143;-78
2022/04/09 06:42:41;;;;;;;6.20;3.60;;;;;;;7.54;64.74;98607.06;4958018;28;20096;-77
2022/04/09 06:45:43;;;;;;;5.00;3.38;;;;;;;7.94;64.52;98697.94;5013673;28;20049;-78
2022/04/09 06:49:06;;;;;;;3.67;3.15;;;;;;;7.77;64.67;98665.41;4984683;28;20539;-79
2022/04/09 06:52:58;;;;;;;4.25;3.25;;;;;;;7.90;64.66;98683.34;5013148;28;20041;-78
2022/04/09 06:55:38;;;;;;;4.63;3.45;;;;;;;7.31;64.70;98578.94;4991063;28;20048;-81
2022/04/09 06:58:35;;;;;;;5.28;3.60;;;;;;;8.02;64.64;98698.69;4990860;28;20041;-80
2022/04/09 07:01:13;;;;;;;5.38;3.30;;;;;;;7.48;64.24;98614.91;4994947;28;20045;-78
2022/04/09 07:03:46;;;;;;;4.63;3.60;;;;;;;7.71;64.51;98657.72;4991587;28;20128;-80
2022/04/09 07:06:14;;;;;;;6.22;3.13;;;;;;;7.82;65.04;98653.25;4997980;28;20037;-78
2022/04/09 07:09:26;;;;;;;6.10;3.67;;;;;;;7.70;64.26;98622.34;4966918;28;20054;-79
2022/04/09 07:13:00;;;;;;;4.20;3.55;;;;;;;7.71;63.83;98618.88;4967254;28;20100;-79
2022/04/09 07:15:59;;;;;;;6.57;3.65;;;;;;;8.37;64.20;98738.72;4938820;29;20074;-79
2022/04/09 07:18:52;;;;;;;6.05;3.78;;;;;;;7.82;63.50;98653.25;4912075;29;20067;-81
2022/04/09 07:21:20;;;;;;;6.35;3.65;;;;;;;8.04;63.29;98689.16;4937747;29;20086;-79
2022/04/09 07:24:13;;;;;;;5.45;4.28;;;;;;;7.62;63.45;98624.19;4959702;28;20054;-80
2022/04/09 07:26:46;;;;;;;7.53;4.10;;;;;;;8.31;63.42;98744.00;4978643;28;20045;-80
2022/04/09 07:33:18;;;;;;;4.95;3.97;;;;;;;8.16;63.28;98692.41;5009716;28;20042;-79
2022/04/09 07:36:30;;;;;;;6.20;3.83;;;;;;;8.72;63.26;98775.31;4995239;28;20038;-81
2022/04/09 07:39:49;;;;;;;4.88;3.75;;;;;;;8.11;62.69;98671.78;5008653;28;20525;-81
2022/04/09 07:43:02;;;;;;;4.82;4.22;;;;;;;8.81;62.88;98784.69;4981398;28;20042;-81
2022/04/09 07:50:31;;;;;;;5.05;4.00;;;;;;;8.99;62.28;98797.31;4944213;29;20066;-80
2022/04/09 07:53:15;;;;;;;6.57;3.65;;;;;;;8.51;61.94;98745.41;4948786;28;20043;-78
2022/04/09 07:55:47;;;;;;;5.88;3.88;;;;;;;8.89;62.72;98816.53;4986306;28;20065;-81
2022/04/09 07:58:14;;;;;;;;;;;;;;;8.90;61.91;98815.66;5019114;28;20128;-82
2022/04/09 08:00:46;;;;;;;6.88;4.70;;;;;;;8.14;61.61;98695.88;5001943;28;19948;-80
2022/04/09 08:03:21;;;;;;;4.47;3.75;;;;;;;8.91;62.52;98822.56;5001465;28;20049;-80
2022/04/09 08:09:27;;;;;;;5.82;4.07;;;;;;;8.62;62.12;98735.72;5003297;28;20042;-79
2022/04/09 08:12:33;;;;;;;7.20;4.15;;;;;;;8.91;61.90;98786.25;5019337;28;20054;-83
2022/04/09 08:15:27;;;;;;;4.85;3.92;;;;;;;8.67;61.26;98735.63;4984938;28;20050;-80
2022/04/09 08:17:57;;;;;;;5.20;3.95;;;;;;;8.57;61.38;98719.38;5008289;28;20521;-81
2022/04/09 08:20:30;;;;;;;6.53;4.00;;;;;;;9.17;61.38;98805.63;5019793;28;20042;-79
2022/04/09 08:23:04;;;;;;;5.32;4.20;;;;;;;8.71;61.48;98716.56;4988427;28;20449;-79
2022/04/09 08:25:40;;;;;;;4.97;4.05;;;;;;;9.15;61.06;98792.69;4965534;28;20096;-83
2022/04/09 08:28:53;;;;;;;4.68;3.75;;;;;;;8.98;60.94;98772.25;5003759;28;20041;-81
2022/04/09 08:31:21;;;;;;;4.90;4.00;;;;;;;9.29;60.78;98825.31;4982157;28;20056;-81
2022/04/09 08:34:29;;;;;;;5.95;4.18;;;;;;;9.00;60.62;98744.53;4978998;28;20041;-83
2022/04/09 08:37:24;;;;;;;5.53;3.42;;;;;;;9.39;60.06;98807.81;5008481;28;20509;-82
2022/04/09 08:39:54;;;;;;;4.88;3.90;;;;;;;9.52;60.06;98811.00;4991037;28;20056;-80
2022/04/09 08:42:21;;;;;;;6.30;3.55;;;;;;;9.86;60.23;98829.34;4990156;28;20128;-78
2022/04/09 08:45:06;;;;;;;5.80;3.92;;;;;;;10.01;59.79;98848.13;4987112;28;20088;-79
2022/04/09 08:47:36;;;;;;;7.78;3.95;;;;;;;9.30;59.38;98725.78;4983630;28;20037;-83
2022/04/09 08:50:03;;;;;;;7.72;3.72;;;;;;;9.40;58.97;98735.09;4995543;28;20114;-82
2022/04/09 08:52:30;;;;;;;4.18;3.72;;;;;;;9.70;58.78;98792.47;5011522;28;20493;-82
2022/04/09 08:54:56;;;;;;;5.50;4.88;;;;;;;9.84;58.64;98810.34;4993190;28;20038;-84
2022/04/09 08:57:26;;;;;;;4.38;3.90;;;;;;;9.59;58.98;98737.28;4994038;28;20077;-81
2022/04/09 08:59:56;;;;;;;4.35;3.78;;;;;;;9.65;58.20;98748.41;4975978;28;20044;-83
2022/04/09 09:02:34;;;;;;;5.38;3.45;;;;;;;10.09;58.13;98856.59;4999408;28;20097;-81
2022/04/09 09:05:03;;;;;;;6.13;3.38;;;;;;;10.00;58.03;98862.00;4989814;28;20654;-81
2022/04/09 09:07:45;;;;;;;7.45;3.40;;;;;;;9.46;57.82;98778.25;4991531;28;20056;-82
2022/04/09 09:10:19;;;;;;;4.85;3.67;;;;;;;9.65;57.82;98800.34;4986125;28;20042;-82
2022/04/09 09:13:10;;;;;;;3.95;3.40;;;;;;;10.16;57.46;98860.78;4967344;28;20058;-82
2022/04/09 09:15:55;;;;;;;5.93;3.95;;;;;;;9.93;57.60;98802.34;5016862;28;20072;-83
2022/04/09 09:18:39;;;;;;;4.90;3.97;;;;;;;10.59;58.14;98871.09;5005130;28;20050;-82
2022/04/09 09:21:16;;;;;;;5.82;4.03;;;;;;;10.90;57.56;98839.97;4974933;28;20061;-81
2022/04/09 09:24:32;;;;;;;6.03;4.32;;;;;;;10.99;56.94;98798.09;5008105;28;20045;-80
2022/04/09 09:27:03;;;;;;;6.07;3.90;;;;;;;11.42;56.96;98751.78;4992171;28;20716;-83
2022/04/09 09:29:36;;;;;;;4.90;4.25;;;;;;;12.67;56.42;98821.88;4976116;28;20081;-80
2022/04/09 09:32:44;;;;;;;5.45;3.85;;;;;;;12.92;54.76;98734.88;4981338;28;20041;-83
2022/04/09 09:35:56;;;;;;;5.32;3.42;;;;;;;13.23;52.87;98820.84;5001042;28;20050;-83
2022/04/09 09:38:34;;;;;;;4.93;3.90;;;;;;;12.67;52.21;98779.28;4974842;28;20045;-80
2022/04/09 09:41:11;;;;;;;5.45;3.90;;;;;;;12.41;52.17;98799.25;4990759;28;20496;-83
2022/04/09 09:43:43;;;;;;;5.35;3.90;;;;;;;12.42;52.53;98830.50;4989954;28;20092;-83
2022/04/09 09:46:35;;;;;;;3.97;3.58;;;;;;;12.59;52.56;98803.84;4988778;28;20394;-81
2022/04/09 09:49:01;;;;;;;5.15;3.80;;;;;;;14.30;53.57;98870.97;4976369;28;20042;-80
2022/04/09 09:51:27;;;;;;;6.53;3.80;;;;;;;16.42;53.35;98861.06;4993622;28;20423;-81
2022/04/09 09:54:13;;;;;;;3.45;3.10;;;;;;;18.55;49.51;98853.59;5009920;28;20034;-79
2022/04/09 09:56:42;;;;;;;5.57;3.20;;;;;;;19.02;46.28;98833.34;4993590;28;20054;-82
2022/04/09 09:59:15;;;;;;;2.08;1.88;;;;;;;19.91;43.95;98826.25;4991906;28;20038;-80
2022/04/09 10:01:54;;;;;;;3.72;2.63;;;;;;;19.98;42.31;98826.69;5001536;28;20097;-80
2022/04/09 10:04:26;;;;;;;3.17;2.65;;;;;;;20.41;40.27;98813.38;5013385;28;20080;-82
2022/04/09 10:06:58;;;;;;;3.00;2.53;;;;;;;19.88;38.84;98793.91;4993764;28;20405;-81
2022/04/09 10:09:31;;;;;;;3.88;2.83;;;;;;;18.93;38.89;98775.88;4992174;28;20046;-85
2022/04/09 10:12:34;;;;;;;3.65;2.92;;;;;;;18.54;39.58;98836.09;4989805;28;20100;-87
2022/04/09 10:15:00;;;;;;;4.53;2.97;;;;;;;17.87;38.90;98816.06;5007700;28;20683;-81
2022/04/09 10:17:30;;;;;;;4.70;2.83;;;;;;;18.80;39.85;98821.41;5009146;28;20068;-84
2022/04/09 10:20:04;;;;;;;5.35;3.20;;;;;;;19.59;37.85;98847.56;4992131;28;20092;-82
2022/04/09 10:23:08;;;;;;;2.97;2.70;;;;;;;19.10;36.73;98846.94;5010827;28;20183;-80
2022/04/09 10:25:32;;;;;;;4.03;2.97;;;;;;;17.57;37.00;98845.72;5008580;28;20042;-81
2022/04/09 10:28:03;;;;;;;3.72;3.30;;;;;;;16.76;38.78;98822.66;4992325;28;20109;-82
2022/04/09 10:35:37;;;;;;;3.13;2.67;;;;;;;21.63;35.90;98804.34;4933135;28;20555;-79
2022/04/09 10:38:47;;;;;;;3.17;2.40;;;;;;;23.98;32.46;98854.16;4969766;28;20037;-80
2022/04/09 10:41:23;;;;;;;3.50;2.22;;;;;;;22.65;31.44;98771.44;4989960;28;20513;-82
2022/04/09 10:43:51;;;;;;;3.30;2.42;;;;;;;22.41;32.05;98830.59;4993847;28;20034;-78
2022/04/09 10:46:35;;;;;;;5.88;3.50;;;;;;;21.36;31.73;98792.06;4998212;28;20054;-82
2022/04/09 10:49:34;;;;;;;3.75;2.90;;;;;;;20.30;31.93;98829.09;5026582;28;20069;-81
2022/04/09 10:52:24;;;;;;;3.50;3.08;;;;;;;17.80;32.96;98748.91;4970709;28;20064;-81
2022/04/09 10:55:09;;;;;;;3.97;3.58;;;;;;;17.41;35.15;98822.00;5011290;28;20045;-81
2022/04/09 10:57:58;;;;;;;;;;;;;;;;;;;;;
2022/04/09 11:00:29;;;;;;;3.15;2.85;;;;;;;16.27;35.83;98795.25;4978283;28;20591;-81
2022/04/09 11:03:14;;;;;;;4.80;3.20;;;;;;;15.68;36.95;98835.59;4993446;28;20044;-82
2022/04/09 11:06:42;;;;;;;;;;;;;;;;;;;;;
2022/04/09 11:09:54;;;;;;;4.03;2.70;;;;;;;14.05;38.68;98699.28;4993985;28;20053;-82
2022/04/09 11:13:12;;;;;;;3.30;2.50;;;;;;;14.45;38.72;98765.66;4997471;28;20529;-82
2022/04/09 11:16:28;;;;;;;6.50;3.00;;;;;;;14.84;39.09;98842.66;5498009;23;21322;-79
2022/04/09 11:18:54;;;;;;;2.58;2.38;;;;;;;14.60;39.29;98764.19;4931245;29;20089;-78
2022/04/09 11:21:23;;;;;;;6.45;2.90;;;;;;;15.29;38.88;98850.41;4951468;28;20084;-80
2022/04/09 11:24:04;;;;;;;2.83;2.60;;;;;;;14.80;39.07;98835.84;4955062;29;20058;-82
2022/04/09 11:26:32;;;;;;;3.13;2.72;;;;;;;14.40;39.96;98825.22;4933202;29;20047;-78
2022/04/09 11:29:11;;;;;;;5.63;2.92;;;;;;;14.43;40.45;98832.97;4946038;29;20058;-81
2022/04/09 11:31:47;;;;;;;2.85;2.63;;;;;;;14.37;39.79;98843.66;4933681;29;20044;-81
2022/04/09 11:34:13;;;;;;;3.58;2.80;;;;;;;14.25;40.79;98831.91;4944535;29;20151;-82
2022/04/09 11:36:40;;;;;;;3.55;3.25;;;;;;;14.35;40.84;98849.84;4947484;29;20398;-78
2022/04/09 11:39:06;;;;;;;3.95;2.90;;;;;;;14.57;40.54;98852.47;4947402;29;20047;-78
2022/04/09 11:41:32;;;;;;;3.50;3.20;;;;;;;14.70;41.05;98842.41;4937668;29;20039;-79
2022/04/09 11:44:00;;;;;;;3.05;2.53;;;;;;;14.64;40.53;98814.69;4948256;29;20598;-82
2022/04/09 11:46:32;;;;;;;4.05;2.75;;;;;;;14.76;40.20;98861.31;4933028;29;20035;-78
2022/04/09 11:48:59;;;;;;;9.65;4.40;;;;;;;14.63;40.64;98846.13;4951639;29;20039;-77
2022/04/09 11:51:25;;;;;;;5.57;2.50;;;;;;;14.64;40.75;98850.47;4939184;29;20059;-79
2022/04/09 11:54:12;;;;;;;8.25;2.92;;;;;;;14.79;40.71;98851.63;4948272;29;20220;-78
2022/04/09 11:56:42;;;;;;;3.75;2.80;;;;;;;14.46;40.38;98840.66;4930844;29;20055;-81
2022/04/09 11:59:16;;;;;;;3.58;2.30;;;;;;;14.20;40.46;98867.88;4944971;29;20071;-79
2022/04/09 12:01:52;;;;;;;3.35;2.80;;;;;;;13.62;40.67;98860.44;4924724;29;20539;-80
2022/04/09 12:04:45;;;;;;;5.10;2.60;;;;;;;13.36;41.92;98864.78;4948970;29;20479;-78
2022/04/09 12:07:18;;;;;;;4.68;2.60;;;;;;;13.38;42.22;98865.59;4947435;29;20043;-78
2022/04/09 12:09:49;;;;;;;3.40;3.10;;;;;;;13.22;42.31;98868.75;4946155;29;20047;-78
2022/04/09 12:12:23;;;;;;;3.35;2.50;;;;;;;12.54;42.34;98790.09;4959641;29;20433;-75
2022/04/09 12:15:12;;;;;;;3.15;2.78;;;;;;;12.89;42.47;98855.97;4963609;29;20078;-78
2022/04/09 12:17:38;;;;;;;3.60;2.90;;;;;;;12.65;42.68;98837.59;4951820;28;20601;-78
2022/04/09 12:20:31;;;;;;;5.32;2.78;;;;;;;12.92;42.87;98875.88;4918713;29;20043;-83
2022/04/09 12:23:32;;;;;;;5.47;3.80;;;;;;;12.67;43.29;98857.56;4948362;29;20123;-79
2022/04/09 12:26:00;;;;;;;3.45;2.78;;;;;;;12.75;43.74;98884.25;4950508;29;20067;-79
2022/04/09 12:28:34;;;;;;;4.15;2.70;;;;;;;12.43;43.88;98811.31;4916858;29;20059;-79
2022/04/09 12:31:07;;;;;;;4.03;3.20;;;;;;;11.82;43.58;98722.81;4949513;29;20047;-80
2022/04/09 12:33:33;;;;;;;5.18;2.97;;;;;;;12.27;43.75;98813.56;4950788;28;20039;-78
2022/04/09 12:36:10;;;;;;;6.10;3.20;;;;;;;12.54;43.84;98844.91;4919732;29;20047;-81
2022/04/09 12:39:19;;;;;;;6.05;3.35;;;;;;;11.77;43.88;98716.91;4937285;29;20035;-78
2022/04/09 12:41:48;;;;;;;4.75;2.60;;;;;;;12.69;43.57;98869.66;4950547;29;20043;-82
2022/04/09 12:44:31;;;;;;;3.00;2.70;;;;;;;12.23;43.61;98825.03;4937025;29;20043;-81
2022/04/09 12:47:04;;;;;;;3.35;2.90;;;;;;;12.33;43.67;98849.91;4937240;29;20047;-80
2022/04/09 12:49:51;;;;;;;5.78;4.07;;;;;;;12.49;43.96;98873.75;4937513;29;20128;-78
2022/04/09 12:52:25;;;;;;;4.07;3.38;;;;;;;11.52;44.25;98712.44;4950207;29;20094;-83
2022/04/09 12:55:01;;;;;;;3.75;2.83;;;;;;;12.01;44.31;98794.41;4942329;29;20415;-78